createdAt,value
2018-04-27T00:00:30.661Z,96.98
2018-04-27T00:01:39.771Z,96.88
2018-04-27T00:02:48.600Z,96.6
2018-04-27T00:03:57.803Z,96.6
2018-04-27T00:05:06.989Z,96.31
2018-04-27T00:06:16.573Z,96.98
2018-04-27T00:07:25.403Z,96.41
2018-04-27T00:08:34.233Z,96.22
2018-04-27T00:09:43.167Z,96.79
2018-04-27T00:10:51.997Z,96.31
2018-04-27T00:12:00.826Z,96.88
2018-04-27T00:13:09.930Z,96.31
2018-04-27T00:14:18.761Z,96.12
2018-04-27T00:15:27.742Z,96.5
2018-04-27T00:16:36.851Z,95.84
2018-04-27T00:17:45.682Z,96.31
2018-04-27T00:18:54.510Z,96.22
2018-04-27T00:20:03.340Z,96.69
2018-04-27T00:21:12.494Z,96.5
2018-04-27T00:22:21.330Z,95.55
2018-04-27T00:23:30.427Z,96.79
2018-04-27T00:24:39.531Z,96.79
2018-04-27T00:25:48.636Z,96.5
2018-04-27T00:26:57.763Z,97.07
2018-04-27T00:28:06.595Z,96.31
2018-04-27T00:29:15.421Z,96.5
2018-04-27T00:30:24.251Z,96.31
2018-04-27T00:31:33.080Z,96.79
2018-04-27T00:32:41.909Z,96.5
2018-04-27T00:33:50.741Z,95.65
2018-04-27T00:34:59.570Z,97.17
2018-04-27T00:36:08.680Z,95.94
2018-04-27T00:37:17.516Z,96.6
2018-04-27T00:38:26.489Z,96.79
2018-04-27T00:39:35.320Z,96.31
2018-04-27T00:40:44.149Z,96.5
2018-04-27T00:41:52.980Z,95.65
2018-04-27T00:43:01.805Z,96.5
2018-04-27T00:44:11.020Z,96.5
2018-04-27T00:45:19.846Z,97.07
2018-04-27T00:46:28.677Z,96.88
2018-04-27T00:47:37.511Z,96.6
2018-04-27T00:48:46.339Z,96.79
2018-04-27T00:49:55.217Z,96.88
2018-04-27T00:51:04.048Z,95.65
2018-04-27T00:52:12.875Z,96.88
2018-04-27T00:53:21.711Z,96.88
2018-04-27T00:54:31.103Z,96.5
2018-04-27T00:55:40.134Z,96.88
2018-04-27T00:56:49.235Z,96.41
2018-04-27T00:57:58.064Z,96.31
2018-04-27T00:59:06.896Z,95.65
2018-04-27T01:00:15.725Z,96.69
2018-04-27T01:01:24.878Z,96.6
2018-04-27T01:02:33.994Z,96.74
2018-04-27T01:03:42.826Z,96.88
2018-04-27T01:04:51.662Z,96.93
2018-04-27T01:06:00.489Z,96.98
2018-04-27T01:07:09.316Z,96.74
2018-04-27T01:08:18.419Z,96.64
2018-04-27T01:09:27.249Z,96.45
2018-04-27T01:10:36.081Z,96.74
2018-04-27T01:11:44.914Z,96.26
2018-04-27T01:12:53.788Z,96.83
2018-04-27T01:14:02.618Z,96.64
2018-04-27T01:15:11.725Z,96.17
2018-04-27T01:16:20.561Z,96.55
2018-04-27T01:17:29.665Z,96.45
2018-04-27T01:18:38.647Z,96.93
2018-04-27T01:19:47.473Z,96.45
2018-04-27T01:20:56.303Z,96.83
2018-04-27T01:22:05.135Z,95.51
2018-04-27T01:23:14.237Z,95.7
2018-04-27T01:24:23.167Z,95.31
2018-04-27T01:25:31.996Z,95.89
2018-04-27T01:26:40.826Z,96.26
2018-04-27T01:27:49.658Z,95.6
2018-04-27T01:28:58.765Z,96.55
2018-04-27T01:30:07.597Z,95.41
2018-04-27T01:31:16.479Z,96.08
2018-04-27T01:32:25.310Z,95.7
2018-04-27T01:33:34.141Z,96.45
2018-04-27T01:34:42.970Z,95.7
2018-04-27T01:35:52.102Z,96.45
2018-04-27T01:37:00.935Z,95.51
2018-04-27T01:38:09.766Z,96.36
2018-04-27T01:39:18.598Z,95.51
2018-04-27T01:40:27.435Z,95.98
2018-04-27T01:41:36.641Z,95.79
2018-04-27T01:42:45.470Z,95.7
2018-04-27T01:43:54.859Z,95.51
2018-04-27T01:45:04.252Z,95.89
2018-04-27T01:46:13.159Z,95.41
2018-04-27T01:47:22.188Z,95.98
2018-04-27T01:48:31.291Z,95.31
2018-04-27T01:49:40.124Z,96.45
2018-04-27T01:50:48.953Z,95.79
2018-04-27T01:51:58.068Z,95.51
2018-04-27T01:53:07.173Z,95.79
2018-04-27T01:54:16.013Z,95.31
2018-04-27T01:55:24.845Z,95.03
2018-04-27T01:56:33.673Z,95.51
2018-04-27T01:57:42.503Z,95.89
2018-04-27T01:58:51.438Z,95.79
2018-04-27T02:00:00.272Z,95.7
2018-04-27T02:01:09.097Z,95.51
2018-04-27T02:02:17.923Z,95.6
2018-04-27T02:03:27.104Z,95.41
2018-04-27T02:04:36.460Z,95.41
2018-04-27T02:05:45.292Z,95.31
2018-04-27T02:06:54.120Z,95.79
2018-04-27T02:08:02.948Z,95.51
2018-04-27T02:09:11.778Z,95.41
2018-04-27T02:10:20.881Z,95.41
2018-04-27T02:11:30.269Z,95.6
2018-04-27T02:12:39.096Z,95.31
2018-04-27T02:13:47.926Z,95.51
2018-04-27T02:14:56.758Z,95.41
2018-04-27T02:16:05.590Z,95.79
2018-04-27T02:17:14.421Z,95.41
2018-04-27T02:18:23.249Z,95.31
2018-04-27T02:19:32.352Z,95.31
2018-04-27T02:20:41.203Z,95.51
2018-04-27T02:21:50.441Z,95.22
2018-04-27T02:22:59.268Z,95.03
2018-04-27T02:24:08.097Z,95.22
2018-04-27T02:25:17.199Z,94.93
2018-04-27T02:26:26.026Z,94.74
2018-04-27T02:27:34.957Z,94.84
2018-04-27T02:28:43.790Z,94.37
2018-04-27T02:29:52.897Z,94.56
2018-04-27T02:31:01.727Z,94.46
2018-04-27T02:32:10.841Z,94.46
2018-04-27T02:33:19.780Z,94.65
2018-04-27T02:34:28.609Z,94.08
2018-04-27T02:35:37.442Z,94.46
2018-04-27T02:36:46.283Z,93.6
2018-04-27T02:37:55.387Z,93.99
2018-04-27T02:39:05.042Z,94.37
2018-04-27T02:40:14.151Z,94.27
2018-04-27T02:41:23.256Z,93.41
2018-04-27T02:42:32.364Z,93.51
2018-04-27T02:43:41.192Z,93.89
2018-04-27T02:44:50.705Z,93.7
2018-04-27T02:46:00.094Z,94.08
2018-04-27T02:47:09.486Z,93.7
2018-04-27T02:48:18.311Z,93.32
2018-04-27T02:49:27.694Z,93.51
2018-04-27T02:50:36.954Z,93.51
2018-04-27T02:51:46.058Z,93.32
2018-04-27T02:52:54.888Z,93.23
2018-04-27T02:54:03.726Z,93.89
2018-04-27T02:55:13.105Z,93.7
2018-04-27T02:56:22.270Z,93.32
2018-04-27T02:57:31.088Z,93.51
2018-04-27T02:58:40.195Z,92.75
2018-04-27T02:59:49.035Z,93.51
2018-04-27T03:00:58.135Z,92.66
2018-04-27T03:02:06.973Z,93.32
2018-04-27T03:03:16.080Z,93.41
2018-04-27T03:04:25.472Z,92.47
2018-04-27T03:05:34.303Z,93.32
2018-04-27T03:06:43.414Z,92.9
2018-04-27T03:07:52.642Z,93.51
2018-04-27T03:09:01.755Z,93.6
2018-04-27T03:10:10.858Z,93.65
2018-04-27T03:11:19.686Z,92.8
2018-04-27T03:12:28.512Z,93.46
2018-04-27T03:13:37.939Z,93.65
2018-04-27T03:14:47.332Z,92.66
2018-04-27T03:15:56.436Z,92.8
2018-04-27T03:17:05.263Z,93.27
2018-04-27T03:18:14.371Z,92.8
2018-04-27T03:19:23.252Z,92.42
2018-04-27T03:20:32.078Z,92.71
2018-04-27T03:21:40.909Z,93.08
2018-04-27T03:22:49.738Z,92.8
2018-04-27T03:23:58.708Z,92.52
2018-04-27T03:25:07.936Z,92.9
2018-04-27T03:26:17.040Z,92.8
2018-04-27T03:27:25.874Z,92.94
2018-04-27T03:28:34.696Z,92.8
2018-04-27T03:29:43.801Z,92.66
2018-04-27T03:30:53.229Z,92.61
2018-04-27T03:32:02.620Z,92.9
2018-04-27T03:33:11.446Z,92.42
2018-04-27T03:34:20.895Z,92.23
2018-04-27T03:35:29.677Z,92.33
2018-04-27T03:36:38.659Z,92.37
2018-04-27T03:37:47.488Z,92.42
2018-04-27T03:38:56.325Z,92.61
2018-04-27T03:40:05.428Z,92.23
2018-04-27T03:41:14.257Z,92.42
2018-04-27T03:42:23.185Z,92.42
2018-04-27T03:43:32.013Z,92.42
2018-04-27T03:44:40.842Z,92.42
2018-04-27T03:45:49.951Z,91.38
2018-04-27T03:46:58.781Z,91.47
2018-04-27T03:48:07.885Z,91.56
2018-04-27T03:49:16.714Z,91.47
2018-04-27T03:50:25.817Z,91.94
2018-04-27T03:51:34.646Z,91.28
2018-04-27T03:52:43.479Z,91.56
2018-04-27T03:53:52.632Z,91.66
2018-04-27T03:55:01.749Z,91.56
2018-04-27T03:56:10.578Z,91.66
2018-04-27T03:57:19.685Z,91.56
2018-04-27T03:58:28.785Z,91.85
2018-04-27T03:59:37.714Z,91.47
2018-04-27T04:00:46.542Z,91.47
2018-04-27T04:01:55.642Z,90.9
2018-04-27T04:03:04.478Z,91.38
2018-04-27T04:04:13.304Z,91
2018-04-27T04:05:22.381Z,91.19
2018-04-27T04:06:31.766Z,91
2018-04-27T04:07:40.719Z,91.09
2018-04-27T04:08:49.549Z,90.24
2018-04-27T04:09:58.378Z,91.09
2018-04-27T04:11:07.207Z,90.81
2018-04-27T04:12:16.315Z,90.33
2018-04-27T04:13:25.423Z,90.43
2018-04-27T04:14:34.252Z,90.33
2018-04-27T04:15:43.085Z,90.33
2018-04-27T04:16:51.920Z,90.43
2018-04-27T04:18:01.297Z,90.24
2018-04-27T04:19:10.129Z,90.24
2018-04-27T04:20:19.237Z,90.14
2018-04-27T04:21:28.067Z,89.95
2018-04-27T04:22:36.893Z,89.86
2018-04-27T04:23:45.720Z,89.76
2018-04-27T04:24:54.824Z,90.14
2018-04-27T04:26:03.654Z,89.76
2018-04-27T04:27:12.485Z,89.95
2018-04-27T04:28:21.315Z,89.39
2018-04-27T04:29:30.144Z,89.39
2018-04-27T04:30:39.247Z,89.29
2018-04-27T04:31:48.083Z,89.48
2018-04-27T04:32:56.908Z,88.91
2018-04-27T04:34:05.733Z,89.2
2018-04-27T04:35:14.566Z,89.29
2018-04-27T04:36:23.396Z,89.39
2018-04-27T04:37:32.229Z,89.1
2018-04-27T04:38:41.057Z,89
2018-04-27T04:39:49.885Z,88.91
2018-04-27T04:40:58.713Z,88.91
2018-04-27T04:42:07.972Z,89.2
2018-04-27T04:43:16.802Z,89
2018-04-27T04:44:25.654Z,88.91
2018-04-27T04:45:34.734Z,88.72
2018-04-27T04:46:43.562Z,89.2
2018-04-27T04:47:52.493Z,88.81
2018-04-27T04:49:01.325Z,89
2018-04-27T04:50:10.431Z,89.1
2018-04-27T04:51:19.261Z,88.81
2018-04-27T04:52:28.224Z,89.1
2018-04-27T04:53:38.216Z,88.81
2018-04-27T04:54:47.042Z,89
2018-04-27T04:55:56.161Z,88.81
2018-04-27T04:57:05.544Z,89
2018-04-27T04:58:14.375Z,88.81
2018-04-27T04:59:23.482Z,88.91
2018-04-27T05:00:32.316Z,88.15
2018-04-27T05:01:41.423Z,88.57
2018-04-27T05:02:50.264Z,88.39
2018-04-27T05:03:59.776Z,88.76
2018-04-27T05:05:08.704Z,88.34
2018-04-27T05:06:17.538Z,88.34
2018-04-27T05:07:26.366Z,88.24
2018-04-27T05:08:35.195Z,88.34
2018-04-27T05:09:44.022Z,88.53
2018-04-27T05:10:53.020Z,88.53
2018-04-27T05:12:01.833Z,87.82
2018-04-27T05:13:10.664Z,88.39
2018-04-27T05:14:19.495Z,88.48
2018-04-27T05:15:28.601Z,88.29
2018-04-27T05:16:37.915Z,88.48
2018-04-27T05:17:46.743Z,88.01
2018-04-27T05:18:55.852Z,88.48
2018-04-27T05:20:04.688Z,87.91
2018-04-27T05:21:13.795Z,88.76
2018-04-27T05:22:23.285Z,88.2
2018-04-27T05:23:32.115Z,88.2
2018-04-27T05:24:41.218Z,88.29
2018-04-27T05:25:50.050Z,88.76
2018-04-27T05:26:58.884Z,87.72
2018-04-27T05:28:07.813Z,88.01
2018-04-27T05:29:16.651Z,87.53
2018-04-27T05:30:25.479Z,88.1
2018-04-27T05:31:34.879Z,88.1
2018-04-27T05:32:43.711Z,88.1
2018-04-27T05:33:52.639Z,88.39
2018-04-27T05:35:01.474Z,87.72
2018-04-27T05:36:10.302Z,87.82
2018-04-27T05:37:19.130Z,88.01
2018-04-27T05:38:28.238Z,87.82
2018-04-27T05:39:37.336Z,87.62
2018-04-27T05:40:46.240Z,87.82
2018-04-27T05:41:55.138Z,87.86
2018-04-27T05:43:04.472Z,88.15
2018-04-27T05:44:13.388Z,87.76
2018-04-27T05:45:22.495Z,87.95
2018-04-27T05:46:31.607Z,87.76
2018-04-27T05:47:40.437Z,88.05
2018-04-27T05:48:49.547Z,88.24
2018-04-27T05:49:58.760Z,87.86
2018-04-27T05:51:07.996Z,87.95
2018-04-27T05:52:17.379Z,88.15
2018-04-27T05:53:26.211Z,88.43
2018-04-27T05:54:35.039Z,88.15
2018-04-27T05:55:43.869Z,88.43
2018-04-27T05:56:53.228Z,88.43
2018-04-27T05:58:02.058Z,88.71
2018-04-27T05:59:10.888Z,88.05
2018-04-27T06:00:19.721Z,87.95
2018-04-27T06:01:28.552Z,87.76
2018-04-27T06:02:37.531Z,88.15
2018-04-27T06:03:46.363Z,88.53
2018-04-27T06:04:55.195Z,88.19
2018-04-27T06:06:04.028Z,88.57
2018-04-27T06:07:12.860Z,88.47
2018-04-27T06:08:22.097Z,88.85
2018-04-27T06:09:31.205Z,88
2018-04-27T06:10:40.042Z,88.38
2018-04-27T06:11:49.427Z,88
2018-04-27T06:12:58.258Z,88.76
2018-04-27T06:14:07.665Z,88.57
2018-04-27T06:15:16.499Z,88.19
2018-04-27T06:16:25.326Z,88.85
2018-04-27T06:17:34.157Z,89.52
2018-04-27T06:18:42.988Z,89.23
2018-04-27T06:19:51.823Z,89.8
2018-04-27T06:21:00.652Z,89.52
2018-04-27T06:22:09.484Z,89.04
2018-04-27T06:23:18.317Z,89.23
2018-04-27T06:24:27.150Z,88.28
2018-04-27T06:25:36.388Z,88.76
2018-04-27T06:26:45.517Z,89.14
2018-04-27T06:27:54.349Z,89.18
2018-04-27T06:29:03.181Z,89.37
2018-04-27T06:30:12.291Z,89.18
2018-04-27T06:31:21.221Z,89.28
2018-04-27T06:32:30.053Z,89.94
2018-04-27T06:33:38.888Z,90.89
2018-04-27T06:34:47.717Z,90.99
2018-04-27T06:35:56.830Z,91.66
2018-04-27T06:37:05.764Z,90.89
2018-04-27T06:38:14.874Z,91.75
2018-04-27T06:39:23.713Z,92.13
2018-04-27T06:40:33.326Z,91.75
2018-04-27T06:41:42.159Z,91.47
2018-04-27T06:42:51.290Z,92.8
2018-04-27T06:44:00.125Z,92.03
2018-04-27T06:45:09.232Z,92.22
2018-04-27T06:46:18.113Z,91.85
2018-04-27T06:47:26.945Z,91.61
2018-04-27T06:48:35.832Z,92.56
2018-04-27T06:49:45.234Z,92.18
2018-04-27T06:50:54.061Z,92.36
2018-04-27T06:52:02.891Z,91.51
2018-04-27T06:53:11.726Z,93.32
2018-04-27T06:54:20.812Z,93.32
2018-04-27T06:55:29.644Z,93.13
2018-04-27T06:56:38.475Z,93.7
2018-04-27T06:57:47.306Z,93.51
2018-04-27T06:58:56.138Z,93.6
2018-04-27T07:00:05.020Z,93.41
2018-04-27T07:01:13.851Z,93.32
2018-04-27T07:02:22.685Z,93.89
2018-04-27T07:03:31.514Z,93.32
2018-04-27T07:04:40.348Z,93.89
2018-04-27T07:05:49.281Z,94.08
2018-04-27T07:06:58.114Z,93.32
2018-04-27T07:08:07.225Z,94.65
2018-04-27T07:09:16.059Z,94.03
2018-04-27T07:10:24.894Z,93.65
2018-04-27T07:11:33.896Z,95.36
2018-04-27T07:12:43.277Z,94.03
2018-04-27T07:13:52.103Z,95.27
2018-04-27T07:15:01.294Z,95.08
2018-04-27T07:16:10.404Z,94.13
2018-04-27T07:17:19.234Z,94.03
2018-04-27T07:18:28.069Z,94.6
2018-04-27T07:19:37.176Z,93.55
2018-04-27T07:20:46.295Z,93.46
2018-04-27T07:21:55.129Z,95.46
2018-04-27T07:23:04.067Z,94.22
2018-04-27T07:24:12.900Z,94.6
2018-04-27T07:25:21.736Z,94.6
2018-04-27T07:26:30.570Z,95.36
2018-04-27T07:27:39.675Z,94.7
2018-04-27T07:28:48.556Z,95.08
2018-04-27T07:29:57.391Z,94.51
2018-04-27T07:31:06.222Z,95.27
2018-04-27T07:32:15.329Z,95.27
2018-04-27T07:33:24.164Z,94.89
2018-04-27T07:34:33.057Z,95.46
2018-04-27T07:35:41.891Z,94.03
2018-04-27T07:36:50.726Z,94.42
2018-04-27T07:37:59.834Z,95.46
2018-04-27T07:39:08.668Z,95.32
2018-04-27T07:40:17.652Z,95.32
2018-04-27T07:41:26.492Z,91.79
2018-04-27T07:42:35.319Z,95.22
2018-04-27T07:43:44.151Z,95.98
2018-04-27T07:44:53.261Z,95.32
2018-04-27T07:46:02.196Z,95.12
2018-04-27T07:47:11.028Z,95.89
2018-04-27T07:48:19.862Z,95.6
2018-04-27T07:49:28.696Z,95.41
2018-04-27T07:50:37.529Z,95.98
2018-04-27T07:51:46.764Z,95.51
2018-04-27T07:52:55.598Z,96.27
2018-04-27T07:54:04.432Z,95.6
2018-04-27T07:55:13.266Z,96.65
2018-04-27T07:56:22.437Z,96.36
2018-04-27T07:57:31.322Z,95.56
2018-04-27T07:58:40.158Z,95.84
2018-04-27T07:59:48.993Z,96.6
2018-04-27T08:00:57.826Z,96.8
2018-04-27T08:02:06.959Z,96.32
2018-04-27T08:03:16.228Z,96.51
2018-04-27T08:04:25.063Z,96.89
2018-04-27T08:05:33.904Z,96.7
2018-04-27T08:06:42.730Z,97.94
2018-04-27T08:07:51.844Z,96.32
2018-04-27T08:09:01.111Z,97.75
2018-04-27T08:10:09.939Z,96.03
2018-04-27T08:11:18.912Z,97.51
2018-04-27T08:12:27.988Z,97.13
2018-04-27T08:13:36.820Z,98.51
2018-04-27T08:14:45.903Z,96.8
2018-04-27T08:15:54.736Z,96.65
2018-04-27T08:17:03.846Z,95.56
2018-04-27T08:18:12.955Z,97.22
2018-04-27T08:19:21.790Z,97.89
2018-04-27T08:20:31.025Z,97.13
2018-04-27T08:21:40.131Z,98.94
2018-04-27T08:22:48.965Z,98.75
2018-04-27T08:23:57.802Z,97.22
2018-04-27T08:25:06.922Z,97.61
2018-04-27T08:26:16.089Z,98.27
2018-04-27T08:27:24.927Z,97.51
2018-04-27T08:28:34.035Z,97.22
2018-04-27T08:29:42.868Z,97.17
2018-04-27T08:30:51.703Z,96.65
2018-04-27T08:32:00.942Z,97.8
2018-04-27T08:33:09.774Z,97.41
2018-04-27T08:34:18.616Z,96.17
2018-04-27T08:35:27.451Z,97.8
2018-04-27T08:36:36.287Z,97.7
2018-04-27T08:37:45.221Z,97.41
2018-04-27T08:38:54.055Z,96.56
2018-04-27T08:40:02.889Z,96.51
2018-04-27T08:41:12.000Z,97.85
2018-04-27T08:42:20.833Z,97.37
2018-04-27T08:43:29.717Z,98.8
2018-04-27T08:44:38.550Z,97.66
2018-04-27T08:45:47.659Z,97.94
2018-04-27T08:46:56.494Z,96.61
2018-04-27T08:48:05.330Z,98.42
2018-04-27T08:49:14.164Z,96.7
2018-04-27T08:50:23.019Z,96.7
2018-04-27T08:51:31.837Z,97.03
2018-04-27T08:52:40.671Z,91.88
2018-04-27T08:53:49.783Z,97.8
2018-04-27T08:54:58.947Z,96.75
2018-04-27T08:56:07.783Z,97.71
2018-04-27T08:57:16.619Z,98.08
2018-04-27T08:58:25.453Z,98.27
2018-04-27T08:59:34.291Z,96.7
2018-04-27T09:00:43.452Z,96.46
2018-04-27T09:01:52.287Z,95.98
2018-04-27T09:03:01.127Z,96.46
2018-04-27T09:04:09.961Z,97.51
2018-04-27T09:05:18.792Z,99.9
2018-04-27T09:06:28.000Z,97.8
2018-04-27T09:07:36.833Z,95.98
2018-04-27T09:08:45.668Z,97.03
2018-04-27T09:09:54.501Z,96.94
2018-04-27T09:11:03.336Z,95.61
2018-04-27T09:12:12.223Z,96.03
2018-04-27T09:13:21.054Z,95.36
2018-04-27T09:14:29.891Z,94.6
2018-04-27T09:15:38.725Z,94.98
2018-04-27T09:16:47.562Z,95.75
2018-04-27T09:17:56.500Z,95.94
2018-04-27T09:19:05.335Z,95.65
2018-04-27T09:20:14.172Z,95.56
2018-04-27T09:21:23.007Z,94.31
2018-04-27T09:22:31.837Z,95.08
2018-04-27T09:23:40.922Z,94.79
2018-04-27T09:24:50.032Z,94.98
2018-04-27T09:25:58.869Z,93.17
2018-04-27T09:27:07.697Z,93.55
2018-04-27T09:28:16.532Z,92.79
2018-04-27T09:29:25.719Z,95.84
2018-04-27T09:30:34.557Z,95.36
2018-04-27T09:31:43.674Z,93.36
2018-04-27T09:32:52.511Z,92.79
2018-04-27T09:34:01.348Z,93.55
2018-04-27T09:35:10.186Z,93.84
2018-04-27T09:36:19.121Z,92.69
2018-04-27T09:37:27.955Z,91.55
2018-04-27T09:38:36.791Z,91.07
2018-04-27T09:39:45.630Z,90.97
2018-04-27T09:40:55.043Z,90.97
2018-04-27T09:42:04.578Z,93.5
2018-04-27T09:43:13.409Z,92.69
2018-04-27T09:44:22.244Z,92.12
2018-04-27T09:45:31.358Z,92.93
2018-04-27T09:46:41.042Z,91.45
2018-04-27T09:47:49.880Z,89.59
2018-04-27T09:48:58.993Z,90.16
2018-04-27T09:50:07.831Z,88.54
2018-04-27T09:51:16.951Z,87.48
2018-04-27T09:52:25.782Z,87.1
2018-04-27T09:53:34.625Z,88.82
2018-04-27T09:54:43.736Z,89.59
2018-04-27T09:55:52.854Z,88.92
2018-04-27T09:57:01.691Z,89.11
2018-04-27T09:58:10.628Z,91.59
2018-04-27T09:59:20.013Z,89.39
2018-04-27T10:00:28.846Z,89.97
2018-04-27T10:01:37.682Z,88.25
2018-04-27T10:02:46.793Z,87.2
2018-04-27T10:03:56.154Z,87.58
2018-04-27T10:05:04.990Z,87.39
2018-04-27T10:06:14.100Z,90.16
2018-04-27T10:07:23.220Z,86.53
2018-04-27T10:08:32.059Z,85.58
2018-04-27T10:09:41.050Z,87.01
2018-04-27T10:10:49.891Z,86.47
2018-04-27T10:11:58.725Z,86.19
2018-04-27T10:13:07.561Z,86.47
2018-04-27T10:14:16.679Z,86.67
2018-04-27T10:15:25.614Z,89.44
2018-04-27T10:16:34.449Z,91.25
2018-04-27T10:17:43.291Z,86.76
2018-04-27T10:18:52.127Z,88.1
2018-04-27T10:20:00.968Z,85.9
2018-04-27T10:21:09.859Z,82.65
2018-04-27T10:22:18.693Z,82.22
2018-04-27T10:23:27.528Z,80.98
2018-04-27T10:24:36.364Z,82.6
2018-04-27T10:25:45.203Z,82.41
2018-04-27T10:26:54.287Z,82.7
2018-04-27T10:28:03.127Z,84.13
2018-04-27T10:29:12.237Z,84.42
2018-04-27T10:30:21.074Z,82.54
2018-04-27T10:31:29.911Z,81.11
2018-04-27T10:32:38.900Z,78.43
2018-04-27T10:33:47.738Z,79.49
2018-04-27T10:34:56.571Z,78.05
2018-04-27T10:36:05.410Z,77.57
2018-04-27T10:37:14.243Z,78.24
2018-04-27T10:38:23.182Z,81.21
2018-04-27T10:39:32.023Z,82.26
2018-04-27T10:40:41.141Z,81.68
2018-04-27T10:41:49.978Z,82.64
2018-04-27T10:42:58.826Z,84.65
2018-04-27T10:44:08.397Z,82.45
2018-04-27T10:45:17.505Z,81.68
2018-04-27T10:46:26.344Z,82.74
2018-04-27T10:47:35.463Z,83.12
2018-04-27T10:48:44.576Z,75.95
2018-04-27T10:49:53.997Z,73.02
2018-04-27T10:51:02.836Z,75.79
2018-04-27T10:52:11.675Z,77.9
2018-04-27T10:53:20.517Z,78.09
2018-04-27T10:54:29.355Z,79.05
2018-04-27T10:55:38.891Z,79.52
2018-04-27T10:56:48.006Z,79.81
2018-04-27T10:57:57.116Z,77.99
2018-04-27T10:59:06.231Z,78.95
2018-04-27T11:00:15.068Z,78.76
2018-04-27T11:01:24.235Z,80.38
2018-04-27T11:02:33.374Z,78.57
2018-04-27T11:03:42.207Z,78.28
2018-04-27T11:04:51.046Z,78.95
2018-04-27T11:05:59.887Z,79.33
2018-04-27T11:07:08.724Z,79.24
2018-04-27T11:08:17.563Z,79.81
2018-04-27T11:09:26.714Z,80
2018-04-27T11:10:35.543Z,79.33
2018-04-27T11:11:44.383Z,78.86
2018-04-27T11:12:53.501Z,78.57
2018-04-27T11:14:02.338Z,80.29
2018-04-27T11:15:11.178Z,79.81
2018-04-27T11:16:20.017Z,79.33
2018-04-27T11:17:29.162Z,79.24
2018-04-27T11:18:38.255Z,80.38
2018-04-27T11:19:47.097Z,78.57
2018-04-27T11:20:56.006Z,79.52
2018-04-27T11:22:04.845Z,77.13
2018-04-27T11:23:13.684Z,79.52
2018-04-27T11:24:22.804Z,76.37
2018-04-27T11:25:31.641Z,75.98
2018-04-27T11:26:40.793Z,76.37
2018-04-27T11:27:49.631Z,76.37
2018-04-27T11:28:58.499Z,75.89
2018-04-27T11:30:07.391Z,74.93
2018-04-27T11:31:16.228Z,75.93
2018-04-27T11:32:25.068Z,78.19
2018-04-27T11:33:33.906Z,76.12
2018-04-27T11:34:42.744Z,77.13
2018-04-27T11:35:51.695Z,77.9
2018-04-27T11:37:00.810Z,78.99
2018-04-27T11:38:09.651Z,76.69
2018-04-27T11:39:18.490Z,77.65
2018-04-27T11:40:27.338Z,79.57
2018-04-27T11:41:36.811Z,79.18
2018-04-27T11:42:45.927Z,76.89
2018-04-27T11:43:54.722Z,76.02
2018-04-27T11:45:03.561Z,77.26
2018-04-27T11:46:12.401Z,76.31
2018-04-27T11:47:21.240Z,78.13
2018-04-27T11:48:30.080Z,79.37
2018-04-27T11:49:38.921Z,76.98
2018-04-27T11:50:47.760Z,74.97
2018-04-27T11:51:56.599Z,77.65
2018-04-27T11:53:05.436Z,76.64
2018-04-27T11:54:14.286Z,76.21
2018-04-27T11:55:23.127Z,75.83
2018-04-27T11:56:31.967Z,78.61
2018-04-27T11:57:40.806Z,75.54
2018-04-27T11:58:49.747Z,77.08
2018-04-27T11:59:58.588Z,73.28
2018-04-27T12:01:07.427Z,71.94
2018-04-27T12:02:16.269Z,72.9
2018-04-27T12:03:25.112Z,73.57
2018-04-27T12:04:34.005Z,74.82
2018-04-27T12:05:42.847Z,76.44
2018-04-27T12:06:51.689Z,74.82
2018-04-27T12:08:00.823Z,75.01
2018-04-27T12:09:09.941Z,75.68
2018-04-27T12:10:18.831Z,76.92
2018-04-27T12:11:27.670Z,75.01
2018-04-27T12:12:36.741Z,73.86
2018-04-27T12:13:45.583Z,72.99
2018-04-27T12:14:54.789Z,73.09
2018-04-27T12:16:03.902Z,70.7
2018-04-27T12:17:12.735Z,71.46
2018-04-27T12:18:21.858Z,74.05
2018-04-27T12:19:30.992Z,71.94
2018-04-27T12:20:39.834Z,70.03
2018-04-27T12:21:49.198Z,71.46
2018-04-27T12:22:58.043Z,69.77
2018-04-27T12:24:07.160Z,68.72
2018-04-27T12:25:16.275Z,71.88
2018-04-27T12:26:25.387Z,70.92
2018-04-27T12:27:34.226Z,70.44
2018-04-27T12:28:43.361Z,71.4
2018-04-27T12:29:52.205Z,71.02
2018-04-27T12:31:01.375Z,71.88
2018-04-27T12:32:10.519Z,73.41
2018-04-27T12:33:19.361Z,71.78
2018-04-27T12:34:28.478Z,72.27
2018-04-27T12:35:37.320Z,71.31
2018-04-27T12:36:46.168Z,71.5
2018-04-27T12:37:55.005Z,71.11
2018-04-27T12:39:03.851Z,70.25
2018-04-27T12:40:12.690Z,69.29
2018-04-27T12:41:21.533Z,71.5
2018-04-27T12:42:30.651Z,68.81
2018-04-27T12:43:39.495Z,68.91
2018-04-27T12:44:48.610Z,68.52
2018-04-27T12:45:57.460Z,66.99
2018-04-27T12:47:06.297Z,68.14
2018-04-27T12:48:15.138Z,69.01
2018-04-27T12:49:23.978Z,69.96
2018-04-27T12:50:33.104Z,66.71
2018-04-27T12:51:42.221Z,68.18
2018-04-27T12:52:51.064Z,68.95
2018-04-27T12:53:59.907Z,68.46
2018-04-27T12:55:08.752Z,69.33
2018-04-27T12:56:17.867Z,69.13
2018-04-27T12:57:26.987Z,68.75
2018-04-27T12:58:35.838Z,67.99
2018-04-27T12:59:44.675Z,68.56
2018-04-27T13:00:53.791Z,69.2
2018-04-27T13:02:02.634Z,71.88
2018-04-27T13:03:11.752Z,70.29
2018-04-27T13:04:21.167Z,69.33
2018-04-27T13:05:30.287Z,69.33
2018-04-27T13:06:39.131Z,67.5
2018-04-27T13:07:47.972Z,68.37
2018-04-27T13:08:56.824Z,68.85
2018-04-27T13:10:05.760Z,69.13
2018-04-27T13:11:14.612Z,69.36
2018-04-27T13:12:24.010Z,68.3
2018-04-27T13:13:33.414Z,68.5
2018-04-27T13:14:42.537Z,67.73
2018-04-27T13:15:51.808Z,68.75
2018-04-27T13:17:00.654Z,68.27
2018-04-27T13:18:09.770Z,70
2018-04-27T13:19:18.611Z,69.13
2018-04-27T13:20:27.452Z,68.56
2018-04-27T13:21:36.347Z,71.47
2018-04-27T13:22:45.465Z,68.79
2018-04-27T13:23:54.856Z,69.07
2018-04-27T13:25:03.698Z,69.23
2018-04-27T13:26:12.542Z,69.04
2018-04-27T13:27:21.385Z,69.04
2018-04-27T13:28:30.225Z,68.75
2018-04-27T13:29:39.342Z,70.38
2018-04-27T13:30:48.185Z,69.04
2018-04-27T13:31:57.025Z,70
2018-04-27T13:33:06.524Z,68.75
2018-04-27T13:34:15.365Z,70.38
2018-04-27T13:35:24.527Z,71.34
2018-04-27T13:36:33.367Z,71.25
2018-04-27T13:37:42.488Z,72.88
2018-04-27T13:38:51.529Z,72.97
2018-04-27T13:40:00.788Z,70.23
2018-04-27T13:41:09.907Z,72.56
2018-04-27T13:42:18.750Z,69.78
2018-04-27T13:43:27.877Z,67.51
2018-04-27T13:44:36.825Z,64.34
2018-04-27T13:45:46.222Z,66.74
2018-04-27T13:46:55.618Z,66.3
2018-04-27T13:48:04.474Z,63.41
2018-04-27T13:49:13.594Z,64.37
2018-04-27T13:50:22.539Z,62.55
2018-04-27T13:51:31.388Z,63.64
2018-04-27T13:52:40.236Z,61.52
2018-04-27T13:53:49.081Z,60.37
2018-04-27T13:54:57.935Z,55.46
2018-04-27T13:56:07.177Z,55.27
2018-04-27T13:57:16.038Z,53.38
2018-04-27T13:58:24.880Z,53.96
2018-04-27T13:59:34.008Z,56.36
2018-04-27T14:00:42.861Z,54.85
2018-04-27T14:01:51.864Z,54.34
2018-04-27T14:03:00.746Z,54.36
2018-04-27T14:04:09.564Z,52.06
2018-04-27T14:05:18.697Z,52.37
2018-04-27T14:06:27.825Z,49.1
2018-04-27T14:07:36.875Z,49.58
2018-04-27T14:08:45.723Z,49.19
2018-04-27T14:09:54.575Z,51.57
2018-04-27T14:11:03.432Z,52.34
2018-04-27T14:12:12.285Z,54.65
2018-04-27T14:13:21.235Z,52.06
2018-04-27T14:14:30.104Z,53.91
2018-04-27T14:15:38.937Z,52.75
2018-04-27T14:16:47.784Z,51.02
2018-04-27T14:17:56.920Z,50.93
2018-04-27T14:19:05.771Z,51.96
2018-04-27T14:20:14.622Z,48.71
2018-04-27T14:21:23.496Z,49.27
2018-04-27T14:22:32.315Z,48.85
2018-04-27T14:23:41.160Z,51.07
2018-04-27T14:24:50.159Z,52.34
2018-04-27T14:25:59.005Z,49.53
2018-04-27T14:27:07.853Z,49.43
2018-04-27T14:28:16.698Z,48.85
2018-04-27T14:29:25.544Z,50.1
2018-04-27T14:30:34.390Z,52.39
2018-04-27T14:31:43.518Z,54.02
2018-04-27T14:32:52.361Z,54.09
2018-04-27T14:34:01.206Z,54.09
2018-04-27T14:35:10.051Z,55.34
2018-04-27T14:36:18.946Z,56.3
2018-04-27T14:37:28.064Z,53.7
2018-04-27T14:38:36.907Z,55.22
2018-04-27T14:39:45.749Z,54.64
2018-04-27T14:40:54.655Z,53.13
2018-04-27T14:42:03.802Z,51.69
2018-04-27T14:43:12.645Z,53.68
2018-04-27T14:44:21.493Z,53.11
2018-04-27T14:45:30.609Z,52.72
2018-04-27T14:46:39.514Z,53.97
2018-04-27T14:47:49.092Z,54.8
2018-04-27T14:48:58.001Z,54.33
2018-04-27T14:50:07.851Z,55.29
2018-04-27T14:51:16.694Z,55.38
2018-04-27T14:52:25.555Z,55.86